createdAt,value
2019-05-28T00:00:25.697Z,81.60
2019-05-28T00:02:55.343Z,81.60
2019-05-28T00:05:25.078Z,81.60
2019-05-28T00:07:54.536Z,81.60
2019-05-28T00:10:24.108Z,81.60
2019-05-28T00:12:53.642Z,81.60
2019-05-28T00:15:23.372Z,81.60
2019-05-28T00:17:52.900Z,81.70
2019-05-28T00:20:22.714Z,81.90
2019-05-28T00:22:52.184Z,81.80
2019-05-28T00:25:29.011Z,81.90
2019-05-28T00:27:55.888Z,81.70
2019-05-28T00:30:25.505Z,81.60
2019-05-28T00:32:55.091Z,81.60
2019-05-28T00:35:24.796Z,81.70
2019-05-28T00:37:54.327Z,81.70
2019-05-28T00:40:23.948Z,81.80
2019-05-28T00:42:53.510Z,81.20
2019-05-28T00:45:23.374Z,81.70
2019-05-28T00:47:53.104Z,81.80
2019-05-28T00:50:22.583Z,81.90
2019-05-28T00:52:52.157Z,81.80
2019-05-28T00:55:22.909Z,81.80
2019-05-28T00:57:52.809Z,81.90
2019-05-28T01:00:37.242Z,82.10
2019-05-28T01:03:09.637Z,82.10
2019-05-28T01:05:40.084Z,82.10
2019-05-28T01:08:11.441Z,82.20
2019-05-28T01:10:43.119Z,82.20
2019-05-28T01:13:12.738Z,82.10
2019-05-28T01:15:44.451Z,82.00
2019-05-28T01:18:13.919Z,82.20
2019-05-28T01:20:44.382Z,82.10
2019-05-28T01:23:13.959Z,82.20
2019-05-28T01:25:43.499Z,82.20
2019-05-28T01:28:13.030Z,82.20
2019-05-28T01:30:54.893Z,82.20
2019-05-28T01:33:13.793Z,82.30
2019-05-28T01:35:43.284Z,82.20
2019-05-28T01:38:12.764Z,82.20
2019-05-28T01:40:42.493Z,82.30
2019-05-28T01:43:12.055Z,82.50
2019-05-28T01:45:41.595Z,82.40
2019-05-28T01:48:11.189Z,82.40
2019-05-28T01:50:40.842Z,82.50
2019-05-28T01:53:10.330Z,82.50
2019-05-28T01:55:39.900Z,82.60
2019-05-28T01:58:09.386Z,82.60
2019-05-28T02:00:38.865Z,82.70
2019-05-28T02:03:08.605Z,82.60
2019-05-28T02:05:38.205Z,82.60
2019-05-28T02:08:07.773Z,82.50
2019-05-28T02:10:37.324Z,82.50
2019-05-28T02:13:06.960Z,82.60
2019-05-28T02:15:36.520Z,82.70
2019-05-28T02:18:07.699Z,82.50
2019-05-28T02:20:37.191Z,82.60
2019-05-28T02:23:06.789Z,82.60
2019-05-28T02:25:36.216Z,82.60
2019-05-28T02:28:05.845Z,82.60
2019-05-28T02:30:36.504Z,82.60
2019-05-28T02:33:06.121Z,82.70
2019-05-28T02:35:37.280Z,82.70
2019-05-28T02:38:06.816Z,82.80
2019-05-28T02:40:36.303Z,82.90
2019-05-28T02:43:06.603Z,83.00
2019-05-28T02:45:36.179Z,83.10
2019-05-28T02:48:05.771Z,83.20
2019-05-28T02:50:53.581Z,83.20
2019-05-28T02:53:23.247Z,83.10
2019-05-28T02:55:56.920Z,83.10
2019-05-28T02:58:34.939Z,83.10
2019-05-28T03:01:06.454Z,83.20
2019-05-28T03:03:36.209Z,83.20
2019-05-28T03:06:07.157Z,83.20
2019-05-28T03:08:37.120Z,83.30
2019-05-28T03:11:06.775Z,83.30
2019-05-28T03:13:36.292Z,83.40
2019-05-28T03:16:07.882Z,83.40
2019-05-28T03:18:38.716Z,83.40
2019-05-28T03:21:09.879Z,83.40
2019-05-28T03:23:41.670Z,83.40
2019-05-28T03:26:11.173Z,83.40
2019-05-28T03:28:40.903Z,83.40
2019-05-28T03:31:10.536Z,83.40
2019-05-28T03:33:41.795Z,83.30
2019-05-28T03:36:15.232Z,83.30
2019-05-28T03:38:45.633Z,83.30
2019-05-28T03:41:17.489Z,83.30
2019-05-28T03:43:46.896Z,83.30
2019-05-28T03:46:17.977Z,83.30
2019-05-28T03:48:47.445Z,83.30
2019-05-28T03:51:16.916Z,83.30
2019-05-28T03:53:46.477Z,83.40
2019-05-28T03:56:19.965Z,83.50
2019-05-28T03:58:49.372Z,83.40
2019-05-28T04:01:18.874Z,83.40
2019-05-28T04:03:48.359Z,83.50
2019-05-28T04:06:17.862Z,83.50
2019-05-28T04:08:47.255Z,83.50
2019-05-28T04:11:19.622Z,83.50
2019-05-28T04:13:49.130Z,83.50
2019-05-28T04:16:18.622Z,83.60
2019-05-28T04:18:48.123Z,83.60
2019-05-28T04:21:17.498Z,83.60
2019-05-28T04:23:46.905Z,83.60
2019-05-28T05:12:51.647Z,85.90
2019-05-28T05:15:21.077Z,87.20
2019-05-28T05:17:50.473Z,86.30
2019-05-28T05:20:19.824Z,85.90
2019-05-28T05:22:49.278Z,85.50
2019-05-28T05:25:19.728Z,85.30
2019-05-28T05:27:49.086Z,85.10
2019-05-28T05:30:18.721Z,85.00
2019-05-28T05:32:49.330Z,84.70
2019-05-28T05:35:19.371Z,84.50
2019-05-28T05:37:49.370Z,84.30
2019-05-28T05:40:19.120Z,84.00
2019-05-28T05:42:50.120Z,83.70
2019-05-28T05:45:19.587Z,83.30
2019-05-28T05:47:49.026Z,83.10
2019-05-28T05:50:18.647Z,82.70
2019-05-28T05:52:48.067Z,82.70
2019-05-28T05:55:17.586Z,82.40
2019-05-28T05:57:46.954Z,82.20
2019-05-28T06:00:18.104Z,81.90
2019-05-28T06:02:47.609Z,81.70
2019-05-28T06:05:17.708Z,81.60
2019-05-28T06:07:47.148Z,81.40
2019-05-28T06:10:16.753Z,81.10
2019-05-28T06:12:46.112Z,80.90
2019-05-28T06:15:15.617Z,80.80
2019-05-28T06:17:44.961Z,80.60
2019-05-28T06:20:16.019Z,80.40
2019-05-28T06:22:45.372Z,80.10
2019-05-28T06:25:14.867Z,80.00
2019-05-28T06:27:44.307Z,79.90
2019-05-28T06:30:14.056Z,79.60
2019-05-28T06:32:43.573Z,79.60
2019-05-28T06:35:13.007Z,79.30
2019-05-28T06:37:42.504Z,79.10
2019-05-28T06:40:12.403Z,78.70
2019-05-28T06:42:41.842Z,78.60
2019-05-28T06:45:11.269Z,78.30
2019-05-28T06:47:45.018Z,78.20
2019-05-28T06:50:13.213Z,78.00
2019-05-28T06:52:42.592Z,77.90
2019-05-28T06:55:12.289Z,78.70
2019-05-28T06:57:41.723Z,77.90
2019-05-28T07:00:12.851Z,77.70
2019-05-28T07:02:42.346Z,77.80
2019-05-28T07:05:12.152Z,77.60
2019-05-28T07:07:41.503Z,77.10
2019-05-28T07:10:11.024Z,76.80
2019-05-28T07:12:40.418Z,76.30
2019-05-28T07:15:10.077Z,76.10
2019-05-28T07:17:39.462Z,75.80
2019-05-28T07:20:09.559Z,75.50
2019-05-28T07:22:38.999Z,75.30
2019-05-28T07:25:08.665Z,75.20
2019-05-28T07:27:38.099Z,74.70
2019-05-28T07:30:08.012Z,73.70
2019-05-28T07:32:37.417Z,73.50
2019-05-28T07:35:07.230Z,73.50
2019-05-28T07:37:36.659Z,73.20
2019-05-28T07:40:07.415Z,72.30
2019-05-28T07:42:36.867Z,71.50
2019-05-28T07:45:07.231Z,71.30
2019-05-28T07:47:37.693Z,71.20
2019-05-28T07:50:07.957Z,71.20
2019-05-28T07:52:37.451Z,71.20
2019-05-28T07:55:07.156Z,71.20
2019-05-28T07:57:36.543Z,71.10
2019-05-28T08:00:07.037Z,70.90
2019-05-28T08:02:36.437Z,71.00
2019-05-28T08:05:07.656Z,71.10
2019-05-28T08:07:37.007Z,70.20
2019-05-28T08:10:07.913Z,69.40
2019-05-28T08:12:37.320Z,66.90
2019-05-28T08:15:08.322Z,67.70
2019-05-28T08:17:37.709Z,68.40
2019-05-28T08:20:07.414Z,68.10
2019-05-28T08:22:42.471Z,68.20
2019-05-28T08:25:23.573Z,68.20
2019-05-28T08:27:39.148Z,68.00
2019-05-28T08:30:08.937Z,66.90
2019-05-28T08:32:38.293Z,66.60
2019-05-28T08:35:08.449Z,66.30
2019-05-28T08:37:37.871Z,66.10
2019-05-28T08:40:07.961Z,65.80
2019-05-28T08:42:37.500Z,65.40
2019-05-28T08:45:07.792Z,64.80
2019-05-28T08:47:38.352Z,63.80
2019-05-28T08:50:09.212Z,63.40
2019-05-28T08:52:38.634Z,63.40
2019-05-28T08:55:08.999Z,62.60
2019-05-28T08:57:39.086Z,62.50
2019-05-28T09:00:10.452Z,62.10
2019-05-28T09:02:39.914Z,61.60
2019-05-28T09:05:25.120Z,61.30
2019-05-28T09:07:41.343Z,60.90
2019-05-28T09:10:10.943Z,60.60
2019-05-28T09:12:40.304Z,59.90
2019-05-28T09:15:09.872Z,59.80
2019-05-28T09:17:39.309Z,59.40
2019-05-28T09:20:08.828Z,58.60
2019-05-28T09:22:38.193Z,58.40
2019-05-28T09:25:07.625Z,58.30
2019-05-28T09:27:36.998Z,57.80
2019-05-28T09:30:08.562Z,57.40
2019-05-28T09:32:38.177Z,57.40
2019-05-28T09:35:09.822Z,57.50
2019-05-28T09:37:39.174Z,56.90
2019-05-28T09:40:09.282Z,56.60
2019-05-28T09:42:38.805Z,56.40
2019-05-28T09:45:21.843Z,56.20
2019-05-28T09:47:39.518Z,55.50
2019-05-28T09:50:29.304Z,55.60
2019-05-28T09:52:53.657Z,56.10
2019-05-28T09:55:14.010Z,55.90
2019-05-28T09:57:47.908Z,55.10
2019-05-28T10:00:18.918Z,53.00
2019-05-28T10:02:48.278Z,53.80
2019-05-28T10:05:17.879Z,53.50
2019-05-28T10:07:47.378Z,53.30
2019-05-28T10:10:17.163Z,53.60
2019-05-28T10:12:46.911Z,54.00
2019-05-28T10:15:16.620Z,52.50
2019-05-28T10:17:46.040Z,53.60
2019-05-28T10:20:16.205Z,53.00
2019-05-28T10:22:45.567Z,52.30
2019-05-28T10:25:15.380Z,51.70
2019-05-28T10:27:59.289Z,52.90
2019-05-28T10:30:16.825Z,52.00
2019-05-28T10:32:46.192Z,52.70
2019-05-28T10:35:16.502Z,52.40
2019-05-28T10:37:45.858Z,51.80
2019-05-28T10:40:15.609Z,51.50
2019-05-28T10:42:44.982Z,51.40
2019-05-28T10:45:15.356Z,49.90
2019-05-28T10:47:44.842Z,49.20
2019-05-28T10:50:16.522Z,49.20
2019-05-28T10:52:45.934Z,48.20
2019-05-28T10:55:16.110Z,47.50
2019-05-28T10:57:46.517Z,47.20
2019-05-28T11:00:16.815Z,46.70
2019-05-28T11:02:46.153Z,47.60
2019-05-28T11:05:15.887Z,46.60
2019-05-28T11:07:45.316Z,44.80
2019-05-28T11:10:23.899Z,45.10
2019-05-28T11:12:47.003Z,44.10
2019-05-28T11:15:17.049Z,44.20
2019-05-28T11:17:46.510Z,44.30
2019-05-28T11:20:16.763Z,44.10
2019-05-28T11:22:46.168Z,43.80
2019-05-28T11:25:15.949Z,44.10
2019-05-28T11:27:45.379Z,43.60
2019-05-28T11:30:15.845Z,43.20
2019-05-28T11:32:46.415Z,44.50
2019-05-28T11:35:17.460Z,45.00
2019-05-28T11:37:46.885Z,44.90
2019-05-28T11:40:19.776Z,44.00
2019-05-28T11:42:50.176Z,43.70
2019-05-28T11:45:19.867Z,44.20
2019-05-28T11:47:51.233Z,45.00
2019-05-28T11:50:22.237Z,45.10
2019-05-28T11:52:51.637Z,44.40
2019-05-28T11:55:21.246Z,45.80
2019-05-28T11:57:50.655Z,45.50
2019-05-28T12:00:20.756Z,45.50
2019-05-28T12:02:50.166Z,44.80
2019-05-28T12:05:20.471Z,43.60
2019-05-28T12:07:51.794Z,43.30
2019-05-28T12:10:21.621Z,42.90
2019-05-28T12:12:51.118Z,43.50
2019-05-28T12:15:22.226Z,44.80
2019-05-28T12:17:51.774Z,43.30
2019-05-28T12:20:21.877Z,41.20
2019-05-28T12:23:08.966Z,42.40
2019-05-28T12:25:25.076Z,42.00
2019-05-28T12:27:54.451Z,40.60
2019-05-28T12:30:24.492Z,41.40
2019-05-28T12:32:54.986Z,42.40
2019-05-28T12:35:29.255Z,42.70
2019-05-28T12:37:55.689Z,42.40
2019-05-28T12:40:25.241Z,42.30
2019-05-28T12:42:54.867Z,41.10
2019-05-28T12:45:34.846Z,41.10
2019-05-28T12:48:09.502Z,40.90
2019-05-28T12:50:26.584Z,42.00
2019-05-28T12:52:56.032Z,41.30
2019-05-28T12:55:25.490Z,41.20
2019-05-28T12:57:54.955Z,41.90
2019-05-28T13:00:25.278Z,42.40
2019-05-28T13:02:54.702Z,42.70
2019-05-28T13:05:27.477Z,41.80
2019-05-28T13:08:08.318Z,41.70
2019-05-28T13:10:27.992Z,42.30
2019-05-28T13:12:57.358Z,41.90
2019-05-28T13:15:26.773Z,41.90
2019-05-28T13:17:56.124Z,42.20
2019-05-28T13:20:25.557Z,40.70
2019-05-28T13:22:54.898Z,41.10
2019-05-28T13:25:24.347Z,40.70
2019-05-28T13:27:53.762Z,40.80
2019-05-28T13:30:23.240Z,42.40
2019-05-28T13:32:52.985Z,42.70
2019-05-28T13:35:23.084Z,42.40
2019-05-28T13:37:52.582Z,42.00
2019-05-28T13:40:22.233Z,42.20
2019-05-28T13:42:51.739Z,41.40
2019-05-28T13:45:21.594Z,40.40
2019-05-28T13:47:51.063Z,40.90
2019-05-28T13:50:20.575Z,41.20
2019-05-28T13:52:49.994Z,40.40
2019-05-28T13:55:19.623Z,40.80
2019-05-28T13:57:49.058Z,41.40
2019-05-28T14:00:20.223Z,41.80
2019-05-28T14:02:49.644Z,41.30
2019-05-28T14:05:19.281Z,41.40
2019-05-28T14:07:48.699Z,42.00
2019-05-28T14:10:18.462Z,41.90
2019-05-28T14:12:47.896Z,41.50
2019-05-28T14:15:17.734Z,40.80
2019-05-28T14:17:47.143Z,41.30
2019-05-28T14:20:17.134Z,41.70
2019-05-28T14:22:46.668Z,41.40
2019-05-28T14:25:16.263Z,41.90
2019-05-28T14:27:45.697Z,42.50
2019-05-28T14:30:17.817Z,43.40
2019-05-28T14:32:47.164Z,42.60
2019-05-28T14:35:16.592Z,43.10
2019-05-28T14:37:46.024Z,43.60
2019-05-28T14:40:16.306Z,43.50
2019-05-28T14:42:45.743Z,43.80
2019-05-28T14:45:15.832Z,44.00
2019-05-28T14:47:45.399Z,44.00
2019-05-28T14:50:15.160Z,44.30
2019-05-28T14:52:44.701Z,44.10
2019-05-28T14:55:16.006Z,43.30
2019-05-28T14:57:45.514Z,42.70
2019-05-28T15:00:19.547Z,42.70
2019-05-28T15:02:48.953Z,43.00
2019-05-28T15:05:18.465Z,43.90
2019-05-28T15:07:47.894Z,44.40
2019-05-28T15:10:17.985Z,44.90
2019-05-28T15:12:47.508Z,45.30
2019-05-28T15:15:34.071Z,45.20
2019-05-28T15:17:48.301Z,45.10
2019-05-28T15:20:18.001Z,44.70
2019-05-28T15:22:47.458Z,45.30
2019-05-28T15:25:17.155Z,45.40
2019-05-28T15:27:46.851Z,45.50
2019-05-28T15:30:16.606Z,45.70
2019-05-28T15:33:05.317Z,45.90
2019-05-28T15:35:34.829Z,46.20
2019-05-28T15:38:04.259Z,45.90
2019-05-28T15:40:33.677Z,45.60
2019-05-28T15:43:06.573Z,46.10
2019-05-28T15:45:35.236Z,46.30
2019-05-28T15:48:04.960Z,46.10
2019-05-28T15:50:34.499Z,46.60
2019-05-28T15:53:03.958Z,46.60
2019-05-28T15:55:33.456Z,47.00
2019-05-28T15:58:03.251Z,48.50
2019-05-28T16:00:32.677Z,49.80
2019-05-28T16:03:02.140Z,50.40
2019-05-28T16:05:31.514Z,51.20
2019-05-28T16:08:00.944Z,51.50
2019-05-28T16:10:30.300Z,51.90
2019-05-28T16:12:59.654Z,52.10
2019-05-28T16:15:29.091Z,53.00
2019-05-28T16:17:58.620Z,52.80
2019-05-28T16:20:28.053Z,54.00
2019-05-28T16:22:57.472Z,55.10
2019-05-28T16:25:26.909Z,55.50
2019-05-28T16:27:56.472Z,56.30
2019-05-28T16:30:26.406Z,56.90
2019-05-28T16:32:55.795Z,57.30
2019-05-28T16:35:25.148Z,58.10
2019-05-28T16:37:54.739Z,58.60
2019-05-28T16:40:24.201Z,59.00
2019-05-28T16:42:54.662Z,59.20
2019-05-28T16:45:25.734Z,59.50
2019-05-28T16:47:55.078Z,59.30
2019-05-28T16:50:24.507Z,59.00
2019-05-28T16:52:53.981Z,59.10
2019-05-28T16:55:23.413Z,59.60
2019-05-28T16:57:52.992Z,59.90
2019-05-28T17:00:22.759Z,60.20
2019-05-28T17:02:52.444Z,61.10
2019-05-28T17:05:22.041Z,61.70
2019-05-28T17:07:51.531Z,62.30
2019-05-28T17:10:32.518Z,62.70
2019-05-28T17:13:20.603Z,63.50
2019-05-28T17:16:20.800Z,64.40
2019-05-28T17:18:53.110Z,63.60
2019-05-28T17:21:27.253Z,64.70
2019-05-28T17:24:12.835Z,66.60
2019-05-28T17:27:17.226Z,67.60
2019-05-28T17:38:53.677Z,71.60
2019-05-28T17:41:33.247Z,72.10
2019-05-28T17:44:03.175Z,73.10
2019-05-28T17:46:49.866Z,75.00
2019-05-28T17:49:24.851Z,77.40
2019-05-28T17:51:56.850Z,76.30
2019-05-28T17:54:26.391Z,75.20
2019-05-28T17:57:16.058Z,76.00
2019-05-28T17:59:56.389Z,76.60
2019-05-28T18:02:30.032Z,76.60
2019-05-28T18:05:06.430Z,76.80
2019-05-28T18:07:37.480Z,76.50
2019-05-28T18:10:10.103Z,76.40
2019-05-28T18:12:40.889Z,76.20
2019-05-28T18:15:13.361Z,76.10
2019-05-28T18:17:43.222Z,75.90
2019-05-28T18:20:15.020Z,75.80
2019-05-28T18:22:46.451Z,75.80
2019-05-28T18:25:20.885Z,75.90
2019-05-28T18:30:43.446Z,75.90
2019-05-28T18:33:19.841Z,75.80
2019-05-28T18:35:50.019Z,76.00
2019-05-28T18:38:19.605Z,76.20
2019-05-28T18:40:50.931Z,76.20
2019-05-28T18:43:20.414Z,76.30
2019-05-28T18:45:50.000Z,76.40
2019-05-28T18:48:31.623Z,76.50
2019-05-28T18:51:03.370Z,76.60
2019-05-28T18:53:33.183Z,76.80
2019-05-28T18:56:16.480Z,76.80
2019-05-28T18:58:35.707Z,76.90
2019-05-28T19:01:07.218Z,77.00
2019-05-28T19:03:36.738Z,77.50
2019-05-28T19:06:06.341Z,77.50
2019-05-28T19:08:35.981Z,77.70
2019-05-28T19:11:06.304Z,77.90
2019-05-28T19:13:37.251Z,78.30
2019-05-28T19:16:07.780Z,78.90
2019-05-28T19:18:37.633Z,78.90
2019-05-28T19:21:07.190Z,79.20
2019-05-28T19:23:36.716Z,79.20
2019-05-28T19:26:06.231Z,79.30
2019-05-28T19:28:35.655Z,79.50
2019-05-28T19:31:05.167Z,79.40
2019-05-28T19:33:36.644Z,79.50
2019-05-28T19:36:06.407Z,79.70
2019-05-28T19:38:45.004Z,79.60
2019-05-28T19:41:08.228Z,79.80
2019-05-28T19:43:37.817Z,80.00
2019-05-28T19:46:07.435Z,80.00
2019-05-28T19:48:39.329Z,80.20
2019-05-28T19:54:51.043Z,80.20
2019-05-28T19:57:35.121Z,80.20
2019-05-28T20:00:08.091Z,80.20
2019-05-28T20:02:38.136Z,80.30
2019-05-28T20:05:10.713Z,80.50
2019-05-28T20:07:40.498Z,80.40
2019-05-28T20:13:26.432Z,80.40
2019-05-28T20:15:59.398Z,80.50
2019-05-28T20:18:33.666Z,80.40
2019-05-28T20:21:32.337Z,80.40
2019-05-28T20:24:03.379Z,80.50
2019-05-28T20:26:37.902Z,80.50
2019-05-28T20:29:16.122Z,80.30
2019-05-28T20:31:48.389Z,80.40
2019-05-28T20:34:18.278Z,80.20
2019-05-28T20:36:49.891Z,80.30
2019-05-28T20:39:22.879Z,80.50
2019-05-28T20:42:04.083Z,80.50
2019-05-28T20:44:37.023Z,80.50
2019-05-28T20:47:08.961Z,80.60
2019-05-28T20:49:38.593Z,80.90
2019-05-28T20:52:09.224Z,81.60
2019-05-28T20:54:39.472Z,82.00
2019-05-28T20:57:09.030Z,82.00
2019-05-28T20:59:38.633Z,82.00
2019-05-28T21:02:11.024Z,82.30
2019-05-28T21:04:41.775Z,82.50
2019-05-28T21:07:11.335Z,82.70
2019-05-28T21:09:40.823Z,82.80
2019-05-28T21:12:10.464Z,82.80
2019-05-28T21:14:40.128Z,82.70
2019-05-28T21:17:09.683Z,83.40
2019-05-28T21:19:39.147Z,82.70
2019-05-28T21:22:25.810Z,82.60
2019-05-28T21:24:43.081Z,82.60
2019-05-28T21:27:12.635Z,82.90
2019-05-28T21:29:42.282Z,83.10
2019-05-28T21:32:12.353Z,83.30
2019-05-28T21:34:42.775Z,83.40
2019-05-28T21:37:12.334Z,83.40
2019-05-28T21:39:41.843Z,83.30
2019-05-28T21:42:13.212Z,83.30
2019-05-28T21:44:42.801Z,83.30
2019-05-28T21:47:14.001Z,83.40
2019-05-28T21:49:43.537Z,83.30
2019-05-28T21:52:13.189Z,83.20
2019-05-28T21:54:42.744Z,83.20
2019-05-28T21:57:12.339Z,83.30
2019-05-28T21:59:41.966Z,83.20
2019-05-28T22:02:11.738Z,83.30
2019-05-28T22:04:41.283Z,83.20
2019-05-28T22:07:10.861Z,83.20
2019-05-28T22:09:40.662Z,83.20
2019-05-28T22:12:10.202Z,83.20
2019-05-28T22:14:39.882Z,83.20
2019-05-28T22:17:13.032Z,83.30
2019-05-28T22:19:42.173Z,83.40
2019-05-28T22:22:12.728Z,83.40
2019-05-28T22:24:42.334Z,83.50
2019-05-28T22:27:13.391Z,83.50
2019-05-28T22:29:43.325Z,83.60
2019-05-28T22:32:12.954Z,83.70
2019-05-28T22:34:44.195Z,83.70
2019-05-28T22:37:15.610Z,83.80
2019-05-28T22:39:49.880Z,83.80
2019-05-28T22:42:19.507Z,83.80
2019-05-28T22:44:49.109Z,83.90
2019-05-28T22:47:20.306Z,83.90
2019-05-28T22:49:49.952Z,84.20
2019-05-28T22:52:20.880Z,84.20
2019-05-28T22:54:57.660Z,84.30
2019-05-28T23:00:45.255Z,84.20
2019-05-28T23:03:14.647Z,84.10
2019-05-28T23:05:45.238Z,84.10
2019-05-28T23:08:18.074Z,84.20
2019-05-28T23:10:50.942Z,84.30
2019-05-28T23:13:21.006Z,84.20
2019-05-28T23:28:13.638Z,83.90
2019-05-28T23:33:47.740Z,84.10
2019-05-28T23:36:30.343Z,84.00
2019-05-28T23:39:00.446Z,84.10
2019-05-28T23:41:30.026Z,84.00
2019-05-28T23:47:12.649Z,84.20
2019-05-28T23:49:42.138Z,84.10
2019-05-28T23:52:12.732Z,84.00
2019-05-28T23:54:42.242Z,84.00
2019-05-28T23:57:11.968Z,84.10
2019-05-28T23:59:43.059Z,84.10
